Uwchland, Pennsylvania
Current Conditions -  °F | °C
As of 4:35 AM on Thursday 23 Oct 2014 (Local Time) from KMQS Reporting Station
Broken Clouds Broken Clouds  
Wind Chill: 50°   Ceiling: 3900
Heat Index: 50°   Visibility: 10mi
Dew Point: 45°   Wind: 15mph
Humidity: 82%   Direction: 330°NNW
Pressure: 29.8"   Gusts: 22mph
Location:  40.07°N, 75.69°W
Report Text: KMQS 230835Z AUTO 33013G19KT 10SM FEW025 BKN039 BKN047 10/07 A2980 RMK AO2
Loading
Personal Weather Stations






























Interactive Weather Map
Tropical Storm Tracking
New forecast layout! Learn more

10-Day Weather Forecast

Advertisements
Track Severe Weather on mobile